»·PEaware :: N627SP KSBA-KBUR

N627SP :: KSBA-KBUR

FLIGHT INFORMATION

Flight Status: Arrived
Operator: Privately registered:
United States
More flights under this callsign
Pilot: Tom S. (23203)
Aircraft: CESSNA 172 SKYHAWK
(C172)
More flights by this aircraft type
Origin: KSBA Santa Barbara Mun
United States
Destination: KBUR Bob Hope-Burbank
United States
More flights between these airports :: More routes between these airports
Route: +
File this flight plan on PilotEdge
Remarks: CAT8
Altitude:
(Current/Filed)
5,000ft
Speed:
(Current/Filed)
115kts
Departed: 31-Jan-19 03:29 PM
Arrived: 31-Jan-19 04:14 PM
Distance/Time
Traveled:
74nm/0:45
Distance/Time
To Go:
Arrived

Flight Plot

Page will automatically refresh every two minutes.


Map Options




Map Legend


Flown Route
Filed Route
Departure Airport
Arrival Airport
Navaid (VOR, NDB)
Fix

Horizontal Profiles

Position Reports

Time Latitude Longitude Heading Altitude Ground
Speed
31-Jan-19 15:17 34.425811 -119.836712 189 4ft 0kts
31-Jan-19 15:18 34.425811 -119.836712 189 4ft 0kts
31-Jan-19 15:19 34.425811 -119.836712 189 4ft 0kts
31-Jan-19 15:20 34.425811 -119.836712 189 4ft 0kts
31-Jan-19 15:21 34.425811 -119.836712 189 4ft 0kts
31-Jan-19 15:22 34.425811 -119.836712 189 4ft 0kts
31-Jan-19 15:23 34.425850 -119.837023 309 4ft 8kts
31-Jan-19 15:24 34.426970 -119.838429 347 4ft 0kts
31-Jan-19 15:25 34.429563 -119.839236 347 4ft 21kts
31-Jan-19 15:26 34.430526 -119.839717 282 3ft 0kts
31-Jan-19 15:27 34.430526 -119.839717 282 3ft 0kts
31-Jan-19 15:28 34.424897 -119.838403 160 190ft 52kts
31-Jan-19 15:29 34.410704 -119.833691 167 927ft 57kts
31-Jan-19 15:30 34.393563 -119.827825 163 1348ft 72kts
31-Jan-19 15:31 34.379442 -119.823335 167 1460ft 85kts
31-Jan-19 15:32 34.354502 -119.818170 170 1480ft 100kts
31-Jan-19 15:33 34.336596 -119.811144 162 1255ft 99kts
31-Jan-19 15:34 34.332403 -119.788502 71 1711ft 102kts
31-Jan-19 15:35 34.338501 -119.759937 103 2383ft 95kts
31-Jan-19 15:36 34.336333 -119.738382 105 2910ft 92kts
31-Jan-19 15:37 34.330309 -119.696057 104 3453ft 94kts
31-Jan-19 15:38 34.321158 -119.634586 101 3419ft 89kts
31-Jan-19 15:39 34.312679 -119.543384 95 3281ft 88kts
31-Jan-19 15:40 34.309513 -119.480797 96 3529ft 88kts
31-Jan-19 15:42 34.303572 -119.404605 94 3499ft 87kts
31-Jan-19 15:43 34.297751 -119.353793 100 3445ft 87kts
31-Jan-19 15:44 34.294685 -119.306944 94 3556ft 86kts
31-Jan-19 15:45 34.290687 -119.259423 96 3751ft 88kts
31-Jan-19 15:46 34.281912 -119.188338 97 3546ft 94kts
31-Jan-19 15:47 34.271647 -119.104933 104 3390ft 95kts
31-Jan-19 15:48 34.264502 -119.069850 100 3461ft 89kts
31-Jan-19 15:49 34.261047 -119.043887 102 3480ft 91kts
31-Jan-19 15:50 34.256234 -119.010254 101 3485ft 92kts
31-Jan-19 15:51 34.253732 -118.965101 97 3484ft 93kts
31-Jan-19 15:52 34.250595 -118.919714 98 3528ft 93kts
31-Jan-19 15:53 34.248811 -118.888902 100 3542ft 94kts
31-Jan-19 15:54 34.247439 -118.871000 85 3563ft 95kts
31-Jan-19 15:55 34.249863 -118.840907 117 3586ft 92kts
31-Jan-19 15:56 34.244283 -118.815181 98 3565ft 98kts
31-Jan-19 15:57 34.242572 -118.785609 106 3545ft 97kts
31-Jan-19 15:57 34.239771 -118.763924 110 3555ft 94kts
31-Jan-19 15:59 34.234880 -118.746248 105 3499ft 97kts
31-Jan-19 16:00 34.231393 -118.713670 98 3492ft 94kts
31-Jan-19 16:01 34.228756 -118.677382 89 3448ft 95kts
31-Jan-19 16:01 34.227322 -118.657510 99 3389ft 99kts
31-Jan-19 16:02 34.222930 -118.634923 97 3222ft 110kts
31-Jan-19 16:03 34.220492 -118.607390 95 2894ft 107kts
31-Jan-19 16:05 34.218700 -118.577542 92 2769ft 98kts
31-Jan-19 16:06 34.219435 -118.560290 94 2835ft 90kts
31-Jan-19 16:06 34.217971 -118.541897 101 2928ft 90kts
31-Jan-19 16:07 34.214919 -118.517519 106 3124ft 88kts
31-Jan-19 16:08 34.205496 -118.492369 126 3177ft 91kts
31-Jan-19 16:09 34.197676 -118.459128 89 2463ft 110kts
31-Jan-19 16:10 34.198421 -118.422040 89 1381ft 111kts
31-Jan-19 16:11 34.197961 -118.388416 89 452ft 83kts
31-Jan-19 16:12 34.197826 -118.365508 90 4ft 52kts
31-Jan-19 16:13 34.196980 -118.360263 176 3ft 0kts
31-Jan-19 16:14 34.196980 -118.360263 176 3ft 0kts
31-Jan-19 16:15 34.196876 -118.362399 270 3ft 18kts
31-Jan-19 16:16 34.196678 -118.366812 175 3ft 4kts
31-Jan-19 16:17 34.196374 -118.366966 357 3ft 0kts
31-Jan-19 16:18 34.196374 -118.366966 357 3ft 0kts

Navigation Log

Ident Type
Flight plan parsing failed, navigation log unavailable